Time;durP1;ratioP1;P1;durP2;ratioP2;P2;SDS_P1;SDS_P2;PMS_P1;PMS_P2;Temp;Humidity;BMP_temperature;BMP_pressure;BME280_temperature;BME280_humidity;BME280_pressure;Samples;Min_cycle;Max_cycle;Signal;HPM_P1;HPM_P2
2022/01/06 00:01:19;;;;;;;12.10;6.20;;;;;;;1.86;78.77;98526.52;106038;1275;108868;-70
2022/01/06 00:03:52;;;;;;;11.60;6.20;;;;;;;1.81;78.92;98521.70;105905;1276;138735;-70
2022/01/06 00:06:24;;;;;;;14.80;6.20;;;;;;;1.78;79.29;98521.23;106042;1276;97814;-71
2022/01/06 00:08:59;;;;;;;15.40;6.70;;;;;;;1.69;79.21;98514.94;107281;1276;112555;-71
2022/01/06 00:11:31;;;;;;;12.70;6.90;;;;;;;1.68;79.88;98518.39;107377;1276;138351;-71
2022/01/06 00:14:07;;;;;;;16.20;6.90;;;;;;;1.63;79.75;98516.12;107474;1276;108721;-71
2022/01/06 00:16:45;;;;;;;14.20;7.20;;;;;;;1.54;79.85;98519.07;106774;1276;139115;-70
2022/01/06 00:24:57;;;;;;;13.90;7.70;;;;;;;1.40;80.68;98516.46;105969;1274;108929;-70
2022/01/06 00:27:29;;;;;;;16.80;8.20;;;;;;;1.40;80.60;98515.80;105912;1276;139973;-69
2022/01/06 00:30:00;;;;;;;15.40;8.00;;;;;;;1.38;80.84;98511.90;106007;1276;97845;-70
2022/01/06 00:32:33;;;;;;;14.70;7.40;;;;;;;1.38;80.84;98513.26;106027;1275;97756;-70
2022/01/06 00:35:07;;;;;;;17.60;7.90;;;;;;;1.37;80.72;98509.02;107343;1274;138733;-70
2022/01/06 00:37:38;;;;;;;14.50;7.60;;;;;;;1.35;80.79;98516.27;107484;1274;108866;-70
2022/01/06 00:40:11;;;;;;;16.40;8.00;;;;;;;1.32;80.75;98512.90;107344;1275;138360;-70
2022/01/06 00:42:43;;;;;;;13.20;8.00;;;;;;;1.31;80.88;98511.39;106729;1274;97873;-70
2022/01/06 00:45:15;;;;;;;13.30;8.10;;;;;;;1.33;80.92;98512.02;105923;1275;97915;-70
2022/01/06 00:47:49;;;;;;;16.60;7.40;;;;;;;1.35;80.85;98512.67;106120;1273;138768;-69
2022/01/06 00:50:21;;;;;;;13.10;8.20;;;;;;;1.36;80.97;98507.67;105973;1276;108297;-70
2022/01/06 00:52:52;;;;;;;15.30;8.30;;;;;;;1.37;80.94;98510.38;105828;1276;138632;-71
2022/01/06 00:55:24;;;;;;;14.40;7.60;;;;;;;1.39;80.83;98509.48;106048;1276;97944;-70
2022/01/06 00:57:56;;;;;;;15.90;7.90;;;;;;;1.40;80.96;98514.23;105917;1276;138313;-70
2022/01/06 01:00:37;;;;;;;17.80;9.10;;;;;;;1.40;80.91;98516.30;106048;1276;112517;-71
2022/01/06 01:03:14;;;;;;;14.90;7.40;;;;;;;1.43;80.94;98510.41;105966;1276;108477;-70
2022/01/06 01:05:48;;;;;;;18.80;7.50;;;;;;;1.47;80.96;98506.91;107357;1276;139456;-71
2022/01/06 01:08:20;;;;;;;14.50;7.60;;;;;;;1.52;81.03;98507.13;106291;1274;97873;-70
2022/01/06 01:10:54;;;;;;;13.50;7.70;;;;;;;1.55;81.00;98504.48;105916;1276;138832;-71
2022/01/06 01:13:31;;;;;;;14.20;7.10;;;;;;;1.58;80.87;98505.94;106045;1276;112468;-71
2022/01/06 01:16:19;;;;;;;10.90;6.90;;;;;;;1.63;81.00;98503.44;105896;1276;138790;-70
2022/01/06 01:18:51;;;;;;;15.50;7.20;;;;;;;1.69;80.89;98504.15;106024;1276;108375;-70
2022/01/06 01:21:26;;;;;;;12.90;6.90;;;;;;;1.73;80.85;98503.17;106712;1275;97642;-70
2022/01/06 01:24:00;;;;;;;14.50;6.90;;;;;;;1.76;80.77;98500.55;107394;1275;139657;-71
2022/01/06 01:26:32;;;;;;;13.00;6.80;;;;;;;1.80;80.78;98499.25;107464;1276;112649;-71
2022/01/06 01:29:04;;;;;;;12.80;6.70;;;;;;;1.84;80.80;98496.59;106477;1275;138757;-70
2022/01/06 01:31:43;;;;;;;10.90;6.60;;;;;;;1.89;80.66;98493.90;105970;1276;107466;-70
2022/01/06 01:34:20;;;;;;;10.40;6.00;;;;;;;1.94;80.72;98490.86;105907;1276;140190;-71
2022/01/06 01:36:52;;;;;;;12.40;6.40;;;;;;;1.96;80.53;98488.73;106069;1276;97732;-70
2022/01/06 01:39:24;;;;;;;12.20;6.10;;;;;;;1.98;80.57;98487.32;105963;1276;112957;-70
2022/01/06 01:41:56;;;;;;;12.30;6.40;;;;;;;1.99;80.45;98486.79;105899;1276;138147;-70
2022/01/06 01:44:28;;;;;;;12.50;6.60;;;;;;;1.99;80.62;98488.33;106026;1276;108370;-70
2022/01/06 01:47:02;;;;;;;13.00;6.70;;;;;;;2.01;80.68;98491.87;105891;1276;138377;-70
2022/01/06 01:49:47;;;;;;;11.50;6.40;;;;;;;2.03;80.70;98495.42;106038;1274;97857;-69
2022/01/06 01:52:18;;;;;;;11.40;5.80;;;;;;;2.05;80.84;98500.34;105907;1275;138382;-71
2022/01/06 01:54:51;;;;;;;13.50;5.90;;;;;;;2.06;81.15;98506.66;106020;1276;108303;-70
2022/01/06 01:57:23;;;;;;;10.60;5.50;;;;;;;2.06;81.33;98503.92;106035;1274;108310;-70
2022/01/06 01:59:55;;;;;;;9.60;4.90;;;;;;;2.04;81.55;98503.95;105917;1276;139115;-69
2022/01/06 02:02:28;;;;;;;7.20;4.60;;;;;;;2.03;81.58;98501.06;105997;1276;97959;-71
2022/01/06 02:05:00;;;;;;;7.90;4.70;;;;;;;2.05;81.78;98501.88;105913;1273;137932;-70
2022/01/06 02:07:33;;;;;;;6.60;5.00;;;;;;;2.10;82.07;98494.88;106011;1274;109018;-70
2022/01/06 02:10:06;;;;;;;8.60;4.90;;;;;;;2.14;81.98;98505.06;106565;1274;137654;-70
2022/01/06 02:12:41;;;;;;;9.90;5.10;;;;;;;2.16;81.91;98502.97;106085;1274;97820;-70
2022/01/06 02:15:13;;;;;;;9.40;5.30;;;;;;;2.18;82.10;98502.73;106051;1276;97951;-70
2022/01/06 02:17:45;;;;;;;8.80;5.00;;;;;;;2.21;81.99;98502.67;107167;1274;137628;-70
2022/01/06 02:20:19;;;;;;;9.40;4.70;;;;;;;2.25;82.07;98501.88;105954;1276;107805;-70
2022/01/06 02:22:52;;;;;;;7.60;4.20;;;;;;;2.27;82.10;98502.66;105888;1276;138340;-70
2022/01/06 02:25:29;;;;;;;8.10;4.50;;;;;;;2.30;82.06;98495.55;106060;1274;97863;-69
2022/01/06 02:28:03;;;;;;;6.60;4.30;;;;;;;2.34;82.14;98504.03;105924;1274;138225;-70
2022/01/06 02:30:37;;;;;;;10.10;4.60;;;;;;;2.38;82.02;98505.11;106478;1275;112114;-70
2022/01/06 02:33:09;;;;;;;8.40;5.10;;;;;;;2.39;82.01;98502.88;106027;1276;108974;-69
2022/01/06 02:35:41;;;;;;;9.40;5.00;;;;;;;2.38;81.96;98499.80;105942;1276;139430;-69
2022/01/06 02:38:12;;;;;;;9.40;5.30;;;;;;;2.39;82.13;98503.21;106190;1274;97811;-69
2022/01/06 02:40:45;;;;;;;10.60;5.10;;;;;;;2.39;82.00;98503.71;105907;1274;137709;-70
2022/01/06 02:43:18;;;;;;;6.80;4.60;;;;;;;2.39;82.19;98503.71;106063;1274;112928;-69
2022/01/06 02:45:51;;;;;;;7.30;4.20;;;;;;;2.39;82.16;98498.93;105865;1275;138957;-71
2022/01/06 02:48:22;;;;;;;8.00;4.40;;;;;;;2.40;82.27;98501.81;106022;1275;108385;-70
2022/01/06 02:50:55;;;;;;;11.20;4.40;;;;;;;2.41;82.03;98495.43;105983;1276;97867;-69
2022/01/06 02:53:26;;;;;;;9.70;4.40;;;;;;;2.44;82.13;98496.73;105979;1276;137790;-69
2022/01/06 02:55:58;;;;;;;9.70;5.00;;;;;;;2.48;82.03;98495.24;106063;1275;111882;-70
2022/01/06 02:58:45;;;;;;;6.70;4.20;;;;;;;2.49;82.01;98495.55;106595;1274;138192;-70
2022/01/06 03:01:17;;;;;;;9.80;4.90;;;;;;;2.50;81.99;98496.04;107514;1274;107925;-70
2022/01/06 03:03:48;;;;;;;7.80;4.70;;;;;;;2.51;82.05;98496.88;107347;1274;138515;-69
2022/01/06 03:06:20;;;;;;;9.50;5.00;;;;;;;2.49;81.96;98499.16;107465;1274;96161;-70
2022/01/06 03:08:52;;;;;;;10.60;4.50;;;;;;;2.46;81.94;98495.30;107500;1275;112892;-70
2022/01/06 03:11:25;;;;;;;8.00;4.60;;;;;;;2.46;82.31;98497.36;107390;1274;139634;-71
2022/01/06 03:13:58;;;;;;;10.90;4.90;;;;;;;2.47;82.13;98501.78;107442;1274;108646;-69
2022/01/06 03:16:30;;;;;;;8.70;4.20;;;;;;;2.48;82.10;98501.41;107372;1276;138241;-70
2022/01/06 03:19:02;;;;;;;10.00;4.30;;;;;;;2.49;82.15;98509.61;106031;1276;97824;-69
2022/01/06 03:21:34;;;;;;;7.70;4.30;;;;;;;2.53;82.28;98510.05;106060;1276;111462;-69
2022/01/06 03:24:07;;;;;;;7.50;4.00;;;;;;;2.54;82.28;98512.75;105891;1276;137333;-69
2022/01/06 03:26:39;;;;;;;6.10;4.30;;;;;;;2.55;82.33;98513.44;107482;1274;109127;-69
2022/01/06 03:29:10;;;;;;;8.50;4.90;;;;;;;2.53;82.13;98513.30;107349;1275;137534;-69
2022/01/06 03:31:42;;;;;;;8.20;5.00;;;;;;;2.51;82.24;98513.34;106569;1276;97919;-70
2022/01/06 03:34:14;;;;;;;8.00;4.20;;;;;;;2.49;82.20;98511.85;105913;1276;138873;-69
2022/01/06 03:36:46;;;;;;;7.00;3.90;;;;;;;2.49;82.41;98516.48;106141;1276;108765;-69
2022/01/06 03:39:18;;;;;;;6.60;4.50;;;;;;;2.49;82.43;98521.61;106013;1276;107695;-69
2022/01/06 03:41:50;;;;;;;6.90;3.90;;;;;;;2.50;82.55;98526.77;106335;1275;138549;-70
2022/01/06 03:44:22;;;;;;;7.80;4.30;;;;;;;2.51;82.72;98528.62;106577;1274;96586;-70
2022/01/06 03:46:54;;;;;;;5.60;4.00;;;;;;;2.53;82.79;98535.10;105926;1276;139003;-70
2022/01/06 03:49:26;;;;;;;10.10;4.70;;;;;;;2.56;82.76;98534.15;106041;1276;109279;-70
2022/01/06 03:51:57;;;;;;;6.60;4.40;;;;;;;2.55;82.75;98535.20;105916;1276;137656;-70
2022/01/06 03:54:30;;;;;;;7.70;5.20;;;;;;;2.55;82.79;98537.63;106690;1276;97933;-70
2022/01/06 03:57:02;;;;;;;9.20;4.90;;;;;;;2.54;82.84;98539.68;106021;1276;97825;-69
2022/01/06 03:59:34;;;;;;;8.60;4.80;;;;;;;2.53;82.90;98540.93;105924;1276;139021;-69
2022/01/06 04:02:06;;;;;;;6.10;4.30;;;;;;;2.51;83.03;98540.10;106036;1276;108896;-70
2022/01/06 04:04:38;;;;;;;10.40;5.10;;;;;;;2.49;82.94;98547.54;105943;1276;138077;-69
2022/01/06 04:07:10;;;;;;;7.90;4.50;;;;;;;2.49;83.25;98540.84;106027;1276;97939;-69
2022/01/06 04:09:42;;;;;;;7.80;4.20;;;;;;;2.52;83.28;98546.08;106023;1276;97716;-69
2022/01/06 04:12:14;;;;;;;9.60;4.40;;;;;;;2.56;83.32;98549.59;105922;1276;138765;-70
2022/01/06 04:14:47;;;;;;;6.90;4.50;;;;;;;2.57;83.32;98553.15;106095;1276;108897;-70
2022/01/06 04:17:19;;;;;;;8.20;4.90;;;;;;;2.57;83.18;98555.39;105883;1276;137509;-69
2022/01/06 04:19:50;;;;;;;9.50;4.90;;;;;;;2.57;83.41;98555.73;106021;1276;97868;-69
2022/01/06 04:22:22;;;;;;;6.20;4.40;;;;;;;2.52;83.34;98558.64;105901;1276;137407;-69
2022/01/06 04:24:54;;;;;;;7.70;4.50;;;;;;;2.46;83.31;98556.70;106059;1276;112640;-70
2022/01/06 04:27:26;;;;;;;5.90;4.50;;;;;;;2.45;83.44;98556.73;106023;1276;108986;-69
2022/01/06 04:29:57;;;;;;;5.80;4.10;;;;;;;2.45;83.78;98557.76;105881;1276;139241;-69
2022/01/06 04:32:29;;;;;;;8.70;4.70;;;;;;;2.46;83.76;98561.67;106001;1276;97842;-69
2022/01/06 04:35:01;;;;;;;10.00;4.50;;;;;;;2.48;83.98;98560.77;105955;1276;138254;-69
2022/01/06 04:37:34;;;;;;;6.20;4.60;;;;;;;2.48;84.00;98568.67;106045;1276;113054;-69
2022/01/06 04:40:07;;;;;;;6.70;4.60;;;;;;;2.48;84.12;98569.69;105869;1276;137832;-69
2022/01/06 04:42:39;;;;;;;8.00;4.50;;;;;;;2.50;84.13;98561.39;106993;1276;108837;-70
2022/01/06 04:45:12;;;;;;;7.90;4.70;;;;;;;2.51;84.09;98564.98;106057;1276;97920;-69
2022/01/06 04:47:44;;;;;;;7.80;4.60;;;;;;;2.48;84.03;98570.55;106181;1276;137273;-69
2022/01/06 04:50:15;;;;;;;5.90;4.40;;;;;;;2.47;84.20;98563.90;105982;1276;112446;-69
2022/01/06 04:52:47;;;;;;;8.00;4.50;;;;;;;2.43;84.18;98571.35;105858;1276;138743;-71
2022/01/06 04:55:19;;;;;;;6.30;3.90;;;;;;;2.45;84.25;98578.35;106073;1276;109086;-70
2022/01/06 04:57:51;;;;;;;8.80;4.60;;;;;;;2.45;84.38;98583.15;105902;1276;138613;-69
2022/01/06 05:00:23;;;;;;;6.70;4.00;;;;;;;2.45;84.24;98585.20;106111;1276;98675;-70
2022/01/06 05:02:54;;;;;;;6.80;4.30;;;;;;;2.46;84.36;98589.65;107077;1275;112287;-70
2022/01/06 05:05:27;;;;;;;5.00;4.00;;;;;;;2.46;84.37;98595.48;107362;1275;137602;-70
2022/01/06 05:07:58;;;;;;;5.10;4.20;;;;;;;2.48;84.43;98594.56;107459;1276;109094;-70
2022/01/06 05:10:30;;;;;;;7.00;4.90;;;;;;;2.47;84.28;98592.37;107321;1276;138485;-71
2022/01/06 05:13:02;;;;;;;7.80;4.90;;;;;;;2.45;84.30;98599.62;105951;1276;97877;-70
2022/01/06 05:15:34;;;;;;;12.30;5.00;;;;;;;2.44;84.36;98603.93;105973;1276;112480;-71
2022/01/06 05:18:06;;;;;;;8.90;4.30;;;;;;;2.42;84.42;98604.33;105913;1275;138250;-70
2022/01/06 05:20:42;;;;;;;7.70;4.40;;;;;;;2.42;84.32;98599.69;106841;1276;108884;-70
2022/01/06 05:23:14;;;;;;;5.40;4.70;;;;;;;2.41;84.36;98599.36;107104;1276;138009;-70
2022/01/06 05:25:46;;;;;;;6.40;4.40;;;;;;;2.39;84.41;98600.11;106066;1276;97839;-70
2022/01/06 05:28:18;;;;;;;6.30;4.70;;;;;;;2.41;84.65;98600.05;105852;1276;138277;-70
2022/01/06 05:30:50;;;;;;;6.00;5.00;;;;;;;2.43;84.65;98599.15;106041;1276;109000;-69
2022/01/06 05:33:22;;;;;;;6.50;5.10;;;;;;;2.42;84.53;98604.65;105985;1276;107617;-70
2022/01/06 05:35:54;;;;;;;7.00;5.10;;;;;;;2.40;84.56;98605.77;105940;1276;137639;-70
2022/01/06 05:38:25;;;;;;;7.30;4.70;;;;;;;2.37;84.76;98599.14;105991;1276;97828;-69
2022/01/06 05:40:57;;;;;;;7.70;5.30;;;;;;;2.35;84.78;98600.73;105913;1276;138060;-69
2022/01/06 05:43:29;;;;;;;5.20;4.60;;;;;;;2.36;84.77;98604.13;105974;1276;108967;-71
2022/01/06 05:46:01;;;;;;;6.40;4.70;;;;;;;2.35;84.69;98601.77;105795;1276;138234;-70
2022/01/06 05:48:33;;;;;;;6.20;4.60;;;;;;;2.37;84.87;98602.41;106003;1276;98411;-69
2022/01/06 05:51:05;;;;;;;4.70;3.80;;;;;;;2.40;84.73;98605.08;106054;1276;97915;-70
2022/01/06 05:53:37;;;;;;;4.60;4.10;;;;;;;2.41;84.53;98608.83;105928;1276;137400;-68
2022/01/06 05:56:09;;;;;;;5.60;4.30;;;;;;;2.40;84.28;98614.65;106049;1276;108970;-70
2022/01/06 05:58:41;;;;;;;6.10;4.70;;;;;;;2.40;84.29;98619.14;105892;1276;137486;-70
2022/01/06 06:01:13;;;;;;;6.30;4.20;;;;;;;2.38;84.31;98625.55;105990;1276;97806;-70
2022/01/06 06:03:45;;;;;;;6.90;3.70;;;;;;;2.36;83.99;98632.95;106050;1276;97735;-70
2022/01/06 06:06:17;;;;;;;4.60;3.50;;;;;;;2.35;83.89;98640.89;106394;1274;137718;-70
2022/01/06 06:08:49;;;;;;;5.50;3.40;;;;;;;2.35;83.88;98643.95;106034;1276;108403;-69
2022/01/06 06:11:20;;;;;;;5.70;3.50;;;;;;;2.36;83.89;98655.09;105916;1276;138098;-70
2022/01/06 06:13:52;;;;;;;5.70;3.50;;;;;;;2.38;83.90;98662.58;106054;1276;97844;-70
2022/01/06 06:16:24;;;;;;;6.00;3.70;;;;;;;2.42;83.86;98662.48;105944;1276;137558;-70
2022/01/06 06:18:57;;;;;;;6.30;3.90;;;;;;;2.43;83.79;98669.83;106052;1276;112397;-70
2022/01/06 06:21:28;;;;;;;5.90;3.90;;;;;;;2.40;83.74;98675.39;106053;1276;107055;-70
2022/01/06 06:24:00;;;;;;;5.30;4.10;;;;;;;2.39;83.70;98678.52;105895;1276;138552;-70
2022/01/06 06:26:32;;;;;;;5.10;3.80;;;;;;;2.38;83.77;98679.56;106003;1276;97850;-70
2022/01/06 06:29:04;;;;;;;4.60;3.60;;;;;;;2.36;83.74;98686.80;105917;1276;137958;-70
2022/01/06 06:31:35;;;;;;;6.70;4.00;;;;;;;2.35;83.93;98691.65;106052;1274;112436;-70
2022/01/06 06:34:09;;;;;;;6.20;3.50;;;;;;;2.38;84.03;98691.22;105928;1276;139208;-71
2022/01/06 06:36:41;;;;;;;6.40;3.70;;;;;;;2.41;83.83;98696.29;106123;1276;109026;-70
2022/01/06 06:39:13;;;;;;;5.10;3.50;;;;;;;2.45;83.89;98702.04;105864;1276;97725;-70
2022/01/06 06:41:45;;;;;;;6.00;3.60;;;;;;;2.44;83.65;98700.33;105816;1276;139203;-70
2022/01/06 06:44:17;;;;;;;6.10;3.70;;;;;;;2.42;83.44;98707.42;106016;1276;112594;-69
2022/01/06 06:46:48;;;;;;;5.80;4.10;;;;;;;2.39;83.51;98709.71;105973;1275;138402;-70
2022/01/06 06:49:20;;;;;;;6.00;4.20;;;;;;;2.39;83.41;98713.84;106002;1276;108833;-70
2022/01/06 06:51:52;;;;;;;7.90;5.00;;;;;;;2.35;83.31;98717.20;106097;1275;97819;-70
2022/01/06 06:54:25;;;;;;;7.20;4.00;;;;;;;2.32;83.49;98721.36;106113;1275;137779;-70
2022/01/06 06:56:56;;;;;;;5.50;3.80;;;;;;;2.31;83.46;98730.81;106064;1276;111505;-70
2022/01/06 06:59:28;;;;;;;5.30;3.40;;;;;;;2.32;83.38;98735.77;105935;1276;138186;-70
2022/01/06 07:02:00;;;;;;;6.40;4.30;;;;;;;2.33;83.19;98736.95;106011;1275;109099;-70
2022/01/06 07:04:32;;;;;;;6.10;4.30;;;;;;;2.35;83.19;98731.77;105917;1276;138013;-70
2022/01/06 07:07:19;;;;;;;7.70;4.70;;;;;;;2.38;82.96;98743.70;106030;1276;97853;-70
2022/01/06 07:09:51;;;;;;;7.80;4.90;;;;;;;2.38;82.74;98740.27;106017;1276;112478;-69
2022/01/06 07:12:23;;;;;;;9.30;4.50;;;;;;;2.35;82.38;98749.60;105969;1276;137414;-70
2022/01/06 07:14:54;;;;;;;6.70;4.80;;;;;;;2.30;82.32;98750.55;106043;1276;108434;-70
2022/01/06 07:17:26;;;;;;;8.70;4.60;;;;;;;2.29;82.38;98750.94;105923;1276;138334;-70
2022/01/06 07:19:58;;;;;;;6.50;4.20;;;;;;;2.28;82.31;98758.85;106046;1276;97996;-71
2022/01/06 07:22:30;;;;;;;7.10;4.40;;;;;;;2.27;82.23;98772.76;105923;1276;138669;-69
2022/01/06 07:25:02;;;;;;;4.80;3.40;;;;;;;2.28;82.11;98773.58;106013;1276;108851;-71
2022/01/06 07:27:34;;;;;;;7.10;3.60;;;;;;;2.32;81.81;98776.24;106089;1276;108915;-70
2022/01/06 07:30:08;;;;;;;8.20;3.30;;;;;;;2.34;81.69;98777.59;105929;1276;137705;-71
2022/01/06 07:32:48;;;;;;;5.20;3.50;;;;;;;2.35;81.42;98779.97;107378;1276;96171;-71
2022/01/06 07:35:22;;;;;;;6.60;3.70;;;;;;;2.34;81.35;98787.03;105936;1276;139035;-71
2022/01/06 07:37:54;;;;;;;7.10;3.70;;;;;;;2.31;81.38;98795.64;106060;1276;107792;-69
2022/01/06 07:40:26;;;;;;;4.10;3.30;;;;;;;2.29;81.46;98801.20;105926;1276;137635;-71
2022/01/06 07:42:58;;;;;;;4.90;3.60;;;;;;;2.25;81.57;98803.86;106003;1276;97837;-70
2022/01/06 07:45:30;;;;;;;6.90;3.00;;;;;;;2.27;81.72;98806.39;106034;1276;97724;-70
2022/01/06 07:48:03;;;;;;;4.20;2.90;;;;;;;2.30;81.88;98808.89;105967;1276;138074;-70
2022/01/06 07:50:36;;;;;;;4.10;2.60;;;;;;;2.35;81.67;98812.06;107520;1276;109803;-70
2022/01/06 07:53:08;;;;;;;6.00;3.00;;;;;;;2.36;81.55;98820.09;105933;1276;137387;-71
2022/01/06 07:55:40;;;;;;;5.50;2.90;;;;;;;2.36;81.14;98827.98;106052;1276;97845;-70
2022/01/06 07:58:12;;;;;;;5.60;3.00;;;;;;;2.31;80.81;98823.61;106005;1276;137447;-70
2022/01/06 08:00:43;;;;;;;6.80;2.60;;;;;;;2.26;80.87;98825.77;105990;1276;112545;-70
2022/01/06 08:03:16;;;;;;;4.20;2.70;;;;;;;2.22;80.74;98825.19;106618;1276;108899;-70
2022/01/06 08:05:47;;;;;;;5.80;3.10;;;;;;;2.18;80.63;98830.26;105929;1276;137543;-71
2022/01/06 08:08:22;;;;;;;5.40;3.30;;;;;;;2.10;80.29;98835.72;105855;1276;97876;-69
2022/01/06 08:10:54;;;;;;;5.00;2.80;;;;;;;2.03;80.43;98837.94;105931;1276;138239;-71
2022/01/06 08:13:26;;;;;;;4.90;2.60;;;;;;;2.00;80.32;98837.98;105955;1276;111641;-69
2022/01/06 08:15:58;;;;;;;3.90;2.90;;;;;;;2.01;80.30;98836.27;106090;1276;108985;-71
2022/01/06 08:18:30;;;;;;;5.00;3.10;;;;;;;1.99;80.34;98837.69;105740;1278;137205;-70
2022/01/06 08:21:01;;;;;;;5.80;3.50;;;;;;;1.98;80.27;98839.92;105988;1276;97862;-71
2022/01/06 08:23:33;;;;;;;7.00;3.00;;;;;;;1.96;80.29;98845.09;105819;1276;137253;-70
2022/01/06 08:26:05;;;;;;;6.30;3.00;;;;;;;1.94;80.19;98846.52;105952;1276;112691;-70
2022/01/06 08:28:37;;;;;;;4.50;2.90;;;;;;;1.91;80.27;98853.09;105932;1276;137708;-70
2022/01/06 08:31:09;;;;;;;5.20;3.20;;;;;;;1.91;80.43;98855.14;105950;1276;108436;-70
2022/01/06 08:33:41;;;;;;;6.30;3.00;;;;;;;1.91;80.33;98859.77;106015;1274;97823;-70
2022/01/06 08:36:13;;;;;;;5.80;2.90;;;;;;;1.91;80.28;98865.25;105814;1276;138050;-69
2022/01/06 08:38:44;;;;;;;5.00;3.20;;;;;;;1.92;80.21;98865.73;106068;1276;112612;-70
2022/01/06 08:41:16;;;;;;;5.80;3.10;;;;;;;1.94;80.14;98874.10;105929;1276;138031;-69
2022/01/06 08:43:50;;;;;;;5.00;3.00;;;;;;;1.97;80.03;98882.79;106093;1276;109160;-70
2022/01/06 08:46:22;;;;;;;6.40;3.70;;;;;;;2.02;80.10;98884.58;106044;1276;137626;-70
2022/01/06 08:48:53;;;;;;;7.20;3.90;;;;;;;2.11;80.07;98893.48;106111;1276;97872;-70
2022/01/06 08:51:25;;;;;;;4.90;3.40;;;;;;;2.15;79.91;98896.83;106087;1276;112469;-70
2022/01/06 08:53:57;;;;;;;6.40;3.60;;;;;;;2.14;79.32;98889.13;105956;1276;138115;-71
2022/01/06 08:56:29;;;;;;;5.40;3.80;;;;;;;2.13;78.99;98897.02;106019;1276;107894;-70
2022/01/06 08:59:00;;;;;;;5.40;3.50;;;;;;;2.12;79.14;98900.84;106456;1276;137505;-71
2022/01/06 09:01:33;;;;;;;6.00;3.70;;;;;;;2.15;79.26;98905.93;107488;1276;95822;-71
2022/01/06 09:04:05;;;;;;;6.70;3.80;;;;;;;2.19;78.97;98905.52;106045;1276;112462;-71
2022/01/06 09:06:37;;;;;;;6.80;3.40;;;;;;;2.20;78.68;98904.63;105891;1276;138894;-71
2022/01/06 09:09:10;;;;;;;6.10;3.90;;;;;;;2.23;78.40;98907.65;106039;1276;109183;-71
2022/01/06 09:11:42;;;;;;;5.60;3.90;;;;;;;2.27;78.50;98909.46;106050;1276;138217;-71
2022/01/06 09:14:14;;;;;;;7.40;4.60;;;;;;;2.30;78.04;98900.13;106009;1276;97845;-71
2022/01/06 09:16:46;;;;;;;6.50;4.50;;;;;;;2.31;78.15;98907.14;106190;1274;138589;-71
2022/01/06 09:19:19;;;;;;;7.30;4.90;;;;;;;2.27;77.99;98908.77;107529;1276;108973;-71
2022/01/06 09:21:51;;;;;;;7.40;4.80;;;;;;;2.23;77.99;98912.98;106700;1276;108759;-71
2022/01/06 09:24:23;;;;;;;7.50;4.80;;;;;;;2.21;78.14;98913.88;105985;1275;138011;-70
2022/01/06 09:26:55;;;;;;;7.40;4.30;;;;;;;2.17;78.00;98917.03;106045;1276;97725;-69
2022/01/06 09:29:27;;;;;;;7.20;4.60;;;;;;;2.12;78.28;98928.60;105963;1276;138676;-69
2022/01/06 09:31:59;;;;;;;8.40;4.00;;;;;;;2.10;78.51;98936.88;106059;1276;108746;-70
2022/01/06 09:34:31;;;;;;;8.00;4.00;;;;;;;2.10;78.72;98942.35;106003;1276;139370;-69
2022/01/06 09:37:03;;;;;;;6.10;3.70;;;;;;;2.15;78.79;98941.93;107529;1276;96030;-71
2022/01/06 09:39:35;;;;;;;6.40;3.90;;;;;;;2.18;78.59;98938.80;106884;1276;98503;-72
2022/01/06 09:42:08;;;;;;;5.70;3.60;;;;;;;2.18;78.44;98943.44;105809;1276;139288;-70
2022/01/06 09:44:40;;;;;;;8.80;4.50;;;;;;;2.14;78.54;98948.80;106063;1276;108037;-70
2022/01/06 09:47:12;;;;;;;6.90;4.30;;;;;;;2.09;78.28;98953.02;106393;1274;137708;-70
2022/01/06 09:50:05;;;;;;;6.70;4.40;;;;;;;2.01;78.47;98953.52;107548;1276;96024;-70
2022/01/06 09:52:37;;;;;;;6.80;4.20;;;;;;;2.00;78.78;98952.18;106915;1276;137572;-70
2022/01/06 09:55:10;;;;;;;7.30;3.90;;;;;;;1.99;78.68;98948.08;106033;1276;111170;-70
2022/01/06 09:57:57;;;;;;;6.30;3.60;;;;;;;1.97;78.66;98945.34;107536;1275;108141;-70
2022/01/06 10:00:30;;;;;;;7.60;3.50;;;;;;;1.97;78.44;98952.55;106370;1275;138015;-72
2022/01/06 10:03:04;;;;;;;7.80;3.70;;;;;;;1.98;78.51;98954.77;105851;1276;97830;-72
2022/01/06 10:05:45;;;;;;;6.10;3.70;;;;;;;1.98;78.38;98951.69;105931;1276;138064;-71
2022/01/06 10:08:29;;;;;;;8.00;4.50;;;;;;;1.99;78.45;98958.89;106053;1276;112191;-70
2022/01/06 10:11:15;;;;;;;9.40;5.00;;;;;;;1.94;78.42;98959.80;105981;1276;137762;-71
2022/01/06 10:13:55;;;;;;;8.10;5.60;;;;;;;1.93;78.56;98959.14;105909;1276;108812;-71
2022/01/06 10:16:29;;;;;;;11.10;6.10;;;;;;;1.90;78.43;98960.56;105743;1276;137504;-71
2022/01/06 10:19:05;;;;;;;11.60;6.10;;;;;;;1.87;78.53;98969.20;107530;1275;96012;-71
2022/01/06 10:21:40;;;;;;;9.20;5.10;;;;;;;1.85;78.68;98966.33;106835;1276;111420;-71
2022/01/06 10:24:14;;;;;;;10.40;5.50;;;;;;;1.85;78.78;98973.17;105768;1275;138112;-71
2022/01/06 10:26:57;;;;;;;8.20;4.60;;;;;;;1.87;78.85;98974.84;105858;1276;108958;-71
2022/01/06 10:29:30;;;;;;;10.40;5.00;;;;;;;1.88;78.82;98976.05;105806;1275;138261;-71
2022/01/06 10:32:09;;;;;;;8.80;4.90;;;;;;;1.86;78.74;98977.60;105956;1276;97716;-71
2022/01/06 10:34:44;;;;;;;8.50;4.90;;;;;;;1.86;78.68;98987.89;105821;1276;137465;-71
2022/01/06 10:37:25;;;;;;;10.10;5.80;;;;;;;1.85;78.75;98987.58;105974;1276;108960;-71
2022/01/06 10:40:00;;;;;;;12.60;5.50;;;;;;;1.86;78.73;98989.09;105882;1276;109012;-71
2022/01/06 10:42:34;;;;;;;11.50;5.90;;;;;;;1.84;78.55;98987.92;105863;1276;138077;-71
2022/01/06 10:45:11;;;;;;;11.90;6.00;;;;;;;1.80;78.73;98997.23;107528;1274;96167;-72
2022/01/06 10:47:44;;;;;;;10.80;5.40;;;;;;;1.78;78.74;98998.13;106839;1275;139039;-72
2022/01/06 10:50:23;;;;;;;13.50;5.40;;;;;;;1.73;78.90;98995.47;105884;1276;108688;-70
2022/01/06 10:52:57;;;;;;;10.70;4.70;;;;;;;1.68;79.08;99002.58;105862;1276;138569;-70
2022/01/06 10:55:31;;;;;;;8.00;4.40;;;;;;;1.66;79.28;99008.79;106047;1276;98654;-70
2022/01/06 10:58:04;;;;;;;9.50;4.90;;;;;;;1.65;79.46;99008.98;105947;1276;98254;-71
2022/01/06 11:00:39;;;;;;;10.20;5.00;;;;;;;1.64;79.63;99014.14;105895;1275;137507;-70
2022/01/06 11:03:14;;;;;;;10.30;5.30;;;;;;;1.63;79.82;99011.93;106123;1276;109099;-70
2022/01/06 11:05:50;;;;;;;13.10;5.70;;;;;;;1.61;79.97;99017.44;105928;1276;139417;-71
2022/01/06 11:08:25;;;;;;;9.70;5.60;;;;;;;1.54;80.15;99013.60;107524;1275;96204;-70
2022/01/06 11:11:15;;;;;;;10.40;5.10;;;;;;;1.53;80.28;99014.48;106252;1276;137428;-70
2022/01/06 11:13:49;;;;;;;10.40;5.20;;;;;;;1.51;80.46;99018.10;106084;1274;113196;-71
2022/01/06 11:16:22;;;;;;;13.40;4.90;;;;;;;1.52;80.55;99011.92;105745;1276;138628;-70
2022/01/06 11:18:56;;;;;;;8.20;4.30;;;;;;;1.52;80.61;99014.83;105865;1276;108866;-70
2022/01/06 11:21:39;;;;;;;8.80;5.00;;;;;;;1.56;80.77;99016.14;105894;1276;97950;-71
2022/01/06 11:24:15;;;;;;;9.90;4.60;;;;;;;1.60;80.73;99016.41;105855;1276;137717;-70
2022/01/06 11:26:59;;;;;;;13.00;5.30;;;;;;;1.61;80.85;99020.51;105925;1276;112397;-71
2022/01/06 11:29:34;;;;;;;12.00;5.60;;;;;;;1.61;80.67;99020.85;107388;1275;138139;-71
2022/01/06 11:32:19;;;;;;;13.50;6.60;;;;;;;1.59;80.76;99023.63;107553;1276;108331;-71
2022/01/06 11:35:01;;;;;;;12.30;6.00;;;;;;;1.54;80.79;99027.30;106616;1276;138422;-70
2022/01/06 11:37:43;;;;;;;12.90;5.70;;;;;;;1.53;81.01;99025.95;106014;1276;97801;-71
2022/01/06 11:40:30;;;;;;;12.10;5.30;;;;;;;1.51;81.04;99029.41;106967;1275;112682;-71
2022/01/06 11:43:02;;;;;;;9.50;5.00;;;;;;;1.49;81.19;99027.73;105943;1276;109201;-71
2022/01/06 11:45:33;;;;;;;11.40;5.80;;;;;;;1.50;81.27;99028.75;105899;1276;108913;-71
2022/01/06 11:48:08;;;;;;;14.10;6.60;;;;;;;1.51;81.43;99026.83;105800;1275;138748;-71
2022/01/06 11:50:42;;;;;;;12.10;6.70;;;;;;;1.53;81.56;99031.77;105861;1276;98310;-70
2022/01/06 11:53:17;;;;;;;9.20;6.40;;;;;;;1.53;81.48;99027.15;105883;1276;138030;-70
2022/01/06 11:55:50;;;;;;;14.90;8.20;;;;;;;1.49;81.51;99034.06;105940;1276;108828;-70
2022/01/06 11:58:23;;;;;;;12.50;7.30;;;;;;;1.44;81.73;99040.30;105882;1276;108765;-71